createdAt,value
2022-12-06T00:00:02.715Z,2.80
2022-12-06T00:02:39.257Z,2.80
2022-12-06T00:05:06.207Z,2.80
2022-12-06T00:07:33.026Z,2.80
2022-12-06T00:09:59.953Z,2.80
2022-12-06T00:12:27.056Z,2.80
2022-12-06T00:14:53.734Z,2.80
2022-12-06T00:17:20.458Z,2.80
2022-12-06T00:19:47.136Z,2.80
2022-12-06T00:22:13.928Z,2.70
2022-12-06T00:24:40.717Z,2.80
2022-12-06T00:27:07.377Z,2.80
2022-12-06T00:29:34.054Z,2.80
2022-12-06T00:32:00.760Z,2.80
2022-12-06T00:34:27.544Z,2.90
2022-12-06T00:36:54.224Z,2.80
2022-12-06T00:39:20.896Z,2.80
2022-12-06T00:41:47.619Z,2.80
2022-12-06T00:44:14.391Z,2.80
2022-12-06T00:46:41.067Z,2.80
2022-12-06T00:49:08.098Z,2.80
2022-12-06T00:51:35.129Z,2.80
2022-12-06T00:54:02.376Z,2.80
2022-12-06T00:56:29.108Z,2.80
2022-12-06T00:58:55.778Z,2.80
2022-12-06T01:01:24.587Z,2.80
2022-12-06T01:03:53.190Z,2.80
2022-12-06T01:06:23.307Z,2.70
2022-12-06T01:08:49.999Z,2.70
2022-12-06T01:11:16.720Z,2.70
2022-12-06T01:13:43.404Z,2.70
2022-12-06T01:16:12.174Z,2.70
2022-12-06T01:18:38.940Z,2.70
2022-12-06T01:21:10.549Z,2.60
2022-12-06T01:23:37.277Z,2.60
2022-12-06T01:26:07.215Z,2.70
2022-12-06T01:28:33.978Z,2.70
2022-12-06T01:31:00.824Z,2.70
2022-12-06T01:33:27.608Z,2.70
2022-12-06T01:35:54.323Z,2.80
2022-12-06T01:38:21.000Z,2.80
2022-12-06T01:40:47.832Z,2.80
2022-12-06T01:43:34.593Z,2.80
2022-12-06T01:46:29.812Z,2.70
2022-12-06T01:49:13.019Z,2.70
2022-12-06T01:51:58.144Z,2.80
2022-12-06T01:54:24.807Z,2.70
2022-12-06T01:56:51.603Z,2.80
2022-12-06T01:59:18.295Z,2.70
2022-12-06T02:01:45.057Z,2.80
2022-12-06T02:04:11.731Z,2.80
2022-12-06T02:06:38.880Z,2.80
2022-12-06T02:09:06.947Z,2.80
2022-12-06T02:11:35.726Z,2.80
2022-12-06T02:14:09.046Z,2.80
2022-12-06T02:16:48.081Z,2.80
2022-12-06T02:19:28.857Z,2.80
2022-12-06T02:21:59.080Z,2.80
2022-12-06T02:24:53.481Z,2.80
2022-12-06T02:27:44.991Z,2.80
2022-12-06T02:30:18.835Z,2.80
2022-12-06T02:32:57.127Z,2.70
2022-12-06T02:35:31.717Z,2.80
2022-12-06T02:38:13.150Z,2.70
2022-12-06T02:40:45.942Z,2.70
2022-12-06T02:43:15.874Z,2.70
2022-12-06T02:45:53.797Z,2.70
2022-12-06T02:48:21.324Z,2.60
2022-12-06T02:51:00.210Z,2.60
2022-12-06T02:53:27.941Z,2.60
2022-12-06T02:55:54.624Z,2.60
2022-12-06T02:58:21.272Z,2.60
2022-12-06T03:00:55.723Z,2.60
2022-12-06T03:03:48.513Z,2.60
2022-12-06T03:06:40.699Z,2.60
2022-12-06T03:09:10.329Z,2.60
2022-12-06T03:12:16.149Z,2.60
2022-12-06T03:14:49.619Z,2.60
2022-12-06T03:17:26.933Z,2.50
2022-12-06T03:19:59.080Z,2.60
2022-12-06T03:22:36.891Z,2.50
2022-12-06T03:25:06.646Z,2.50
2022-12-06T03:27:33.357Z,2.50
2022-12-06T03:30:01.869Z,2.60
2022-12-06T03:32:30.417Z,2.50
2022-12-06T03:34:57.922Z,2.60
2022-12-06T03:37:25.165Z,2.60
2022-12-06T03:40:30.466Z,2.60
2022-12-06T03:42:57.228Z,2.50
2022-12-06T03:45:27.397Z,2.50
2022-12-06T03:48:03.191Z,2.50
2022-12-06T03:50:30.566Z,2.50
2022-12-06T03:52:57.272Z,2.40
2022-12-06T03:55:23.954Z,2.50
2022-12-06T03:57:50.620Z,2.50
2022-12-06T04:00:17.727Z,2.50
2022-12-06T04:02:44.544Z,2.40
2022-12-06T04:05:11.301Z,2.40
2022-12-06T04:07:38.061Z,2.40
2022-12-06T04:10:05.521Z,2.40
2022-12-06T04:12:52.294Z,2.50
2022-12-06T04:15:20.137Z,2.50
2022-12-06T04:18:05.258Z,2.50
2022-12-06T04:20:55.024Z,2.50
2022-12-06T04:23:21.756Z,2.50
2022-12-06T04:25:48.520Z,2.50
2022-12-06T04:28:33.574Z,2.50
2022-12-06T04:31:22.340Z,2.50
2022-12-06T04:34:08.810Z,2.60
2022-12-06T04:36:54.843Z,2.50
2022-12-06T04:39:21.620Z,2.50
2022-12-06T04:42:07.295Z,2.60
2022-12-06T04:44:34.008Z,2.60
2022-12-06T04:47:01.075Z,2.60
2022-12-06T04:49:27.855Z,2.60
2022-12-06T04:51:54.955Z,2.50
2022-12-06T04:54:22.048Z,2.60
2022-12-06T04:56:48.935Z,2.60
2022-12-06T04:59:15.693Z,2.50
2022-12-06T05:01:42.539Z,2.50
2022-12-06T05:04:09.270Z,2.50
2022-12-06T05:06:36.012Z,2.60
2022-12-06T05:09:03.267Z,2.50
2022-12-06T05:11:29.972Z,2.60
2022-12-06T05:13:56.700Z,2.60
2022-12-06T05:16:23.449Z,2.60
2022-12-06T05:18:50.177Z,2.60
2022-12-06T05:21:18.530Z,2.60
2022-12-06T05:23:45.292Z,2.60
2022-12-06T05:26:16.639Z,2.60
2022-12-06T05:28:43.689Z,2.60
2022-12-06T05:31:10.862Z,2.60
2022-12-06T05:33:37.725Z,2.50
2022-12-06T05:36:12.555Z,2.50
2022-12-06T05:38:39.224Z,2.60
2022-12-06T05:41:06.152Z,2.60
2022-12-06T05:43:32.865Z,2.60
2022-12-06T05:45:59.731Z,2.60
2022-12-06T05:48:26.545Z,2.60
2022-12-06T05:50:53.653Z,2.60
2022-12-06T05:53:20.542Z,2.60
2022-12-06T05:55:47.333Z,2.70
2022-12-06T05:58:14.243Z,2.60
2022-12-06T06:00:40.909Z,2.60
2022-12-06T06:03:07.722Z,2.70
2022-12-06T06:05:34.464Z,2.60
2022-12-06T06:08:01.229Z,2.70
2022-12-06T06:10:27.949Z,2.60
2022-12-06T06:12:54.604Z,2.70
2022-12-06T06:15:21.269Z,2.60
2022-12-06T06:17:47.925Z,2.60
2022-12-06T06:20:14.690Z,2.60
2022-12-06T06:22:42.168Z,2.60
2022-12-06T06:25:09.211Z,2.60
2022-12-06T06:27:37.623Z,2.60
2022-12-06T06:30:09.370Z,2.60
2022-12-06T06:32:36.154Z,2.60
2022-12-06T06:35:03.512Z,2.60
2022-12-06T06:37:30.171Z,2.60
2022-12-06T06:39:56.965Z,2.60
2022-12-06T06:42:23.729Z,2.60
2022-12-06T06:44:51.748Z,2.60
2022-12-06T06:47:18.407Z,2.60
2022-12-06T06:49:45.072Z,2.60
2022-12-06T06:52:11.749Z,2.50
2022-12-06T06:54:38.418Z,2.60
2022-12-06T06:57:05.076Z,2.50
2022-12-06T06:59:31.794Z,2.60
2022-12-06T07:01:58.538Z,2.60
2022-12-06T07:04:25.315Z,2.60
2022-12-06T07:06:52.049Z,2.60
2022-12-06T07:09:18.713Z,2.70
2022-12-06T07:11:45.430Z,2.60
2022-12-06T07:14:12.208Z,2.70
2022-12-06T07:16:38.941Z,2.70
2022-12-06T07:19:09.026Z,2.60
2022-12-06T07:21:36.069Z,2.70
2022-12-06T07:24:02.735Z,2.60
2022-12-06T07:26:29.414Z,2.60
2022-12-06T07:28:58.953Z,2.70
2022-12-06T07:31:27.939Z,2.70
2022-12-06T07:33:58.752Z,2.70
2022-12-06T07:36:26.043Z,2.70
2022-12-06T07:38:54.236Z,2.70
2022-12-06T07:41:39.984Z,2.70
2022-12-06T07:44:32.149Z,2.70
2022-12-06T07:46:58.846Z,2.70
2022-12-06T07:49:25.579Z,2.70
2022-12-06T07:51:53.482Z,2.70
2022-12-06T07:54:20.175Z,2.70
2022-12-06T07:56:46.871Z,2.70
2022-12-06T07:59:13.613Z,2.70
2022-12-06T08:01:40.482Z,2.80
2022-12-06T08:04:07.745Z,2.80
2022-12-06T08:06:34.652Z,2.80
2022-12-06T08:09:01.406Z,2.80
2022-12-06T08:11:28.680Z,2.80
2022-12-06T08:13:55.457Z,3.00
2022-12-06T08:16:22.248Z,3.10
2022-12-06T08:18:49.631Z,3.10
2022-12-06T08:21:16.550Z,3.10
2022-12-06T08:23:43.193Z,3.00
2022-12-06T08:26:12.314Z,2.90
2022-12-06T08:28:39.240Z,2.90
2022-12-06T08:31:22.548Z,3.00
2022-12-06T08:33:49.328Z,3.00
2022-12-06T08:36:20.465Z,2.90
2022-12-06T08:38:47.286Z,3.00
2022-12-06T08:41:32.869Z,3.00
2022-12-06T08:44:00.145Z,3.00
2022-12-06T08:46:27.146Z,3.00
2022-12-06T08:48:53.904Z,3.00
2022-12-06T08:51:20.583Z,3.00
2022-12-06T08:53:47.265Z,3.00
2022-12-06T08:56:14.089Z,3.00
2022-12-06T08:58:40.892Z,3.00
2022-12-06T09:01:16.062Z,3.10
2022-12-06T09:03:42.875Z,3.10
2022-12-06T09:06:09.640Z,3.10
2022-12-06T09:08:36.824Z,3.10
2022-12-06T09:11:03.895Z,3.20
2022-12-06T09:13:30.671Z,3.20
2022-12-06T09:15:57.522Z,3.20
2022-12-06T09:18:24.290Z,3.20
2022-12-06T09:20:50.996Z,3.20
2022-12-06T09:23:17.761Z,3.30
2022-12-06T09:25:44.455Z,3.30
2022-12-06T09:28:11.545Z,3.30
2022-12-06T09:30:38.256Z,3.30
2022-12-06T09:33:05.029Z,3.30
2022-12-06T09:35:31.895Z,3.40
2022-12-06T09:37:58.627Z,3.30
2022-12-06T09:40:39.866Z,3.30
2022-12-06T09:43:35.489Z,3.40
2022-12-06T09:46:14.329Z,3.50
2022-12-06T09:49:11.844Z,3.50
2022-12-06T09:51:49.452Z,3.60
2022-12-06T09:54:33.761Z,3.60
2022-12-06T09:57:14.584Z,3.60
2022-12-06T09:59:57.804Z,3.70
2022-12-06T10:02:33.731Z,3.70
2022-12-06T10:05:28.522Z,3.70
2022-12-06T10:08:26.192Z,3.70
2022-12-06T10:11:18.486Z,3.70
2022-12-06T10:13:52.775Z,3.80
2022-12-06T10:16:22.352Z,3.80
2022-12-06T10:19:08.393Z,3.90
2022-12-06T10:21:42.288Z,4.00
2022-12-06T10:24:20.922Z,4.00
2022-12-06T10:26:48.552Z,4.00
2022-12-06T10:29:36.731Z,3.90
2022-12-06T10:32:10.946Z,4.00
2022-12-06T10:34:56.568Z,4.00
2022-12-06T10:37:32.523Z,4.00
2022-12-06T10:40:28.067Z,4.10
2022-12-06T10:43:03.393Z,4.00
2022-12-06T10:45:56.070Z,3.90
2022-12-06T10:48:29.050Z,3.90
2022-12-06T10:51:01.369Z,3.80
2022-12-06T10:53:29.568Z,3.80
2022-12-06T10:56:05.550Z,3.80
2022-12-06T10:58:45.302Z,3.80
2022-12-06T11:01:20.833Z,3.80
2022-12-06T11:04:09.078Z,3.80
2022-12-06T11:06:39.583Z,3.80
2022-12-06T11:09:17.404Z,3.80
2022-12-06T11:11:44.106Z,3.80
2022-12-06T11:14:38.167Z,3.80
2022-12-06T11:17:22.495Z,3.90
2022-12-06T11:19:51.356Z,3.90
2022-12-06T11:22:25.667Z,3.90
2022-12-06T11:25:25.924Z,3.90
2022-12-06T11:27:54.201Z,3.90
2022-12-06T11:30:21.063Z,4.00
2022-12-06T11:32:49.624Z,4.00
2022-12-06T11:35:20.806Z,4.10
2022-12-06T11:37:47.576Z,4.10
2022-12-06T11:40:32.514Z,4.10
2022-12-06T11:43:00.763Z,4.00
2022-12-06T11:45:39.144Z,4.10
2022-12-06T11:48:18.724Z,4.10
2022-12-06T11:50:46.544Z,4.10
2022-12-06T11:53:20.597Z,4.10
2022-12-06T11:55:52.512Z,4.10
2022-12-06T11:58:30.129Z,4.10
2022-12-06T12:01:02.512Z,4.00
2022-12-06T12:03:30.234Z,4.10
2022-12-06T12:06:17.614Z,4.10
2022-12-06T12:09:01.008Z,4.10
2022-12-06T12:11:30.602Z,4.20
2022-12-06T12:14:17.072Z,4.20
2022-12-06T12:16:46.595Z,4.20
2022-12-06T12:19:35.715Z,4.20
2022-12-06T12:22:20.649Z,4.20
2022-12-06T12:25:17.980Z,4.30
2022-12-06T12:27:47.815Z,4.30
2022-12-06T12:30:34.586Z,4.30
2022-12-06T12:33:07.256Z,4.30
2022-12-06T12:35:38.656Z,4.40
2022-12-06T12:38:22.775Z,4.40
2022-12-06T12:40:58.206Z,4.40
2022-12-06T12:43:26.789Z,4.50
2022-12-06T12:46:11.963Z,4.50
2022-12-06T12:48:39.673Z,4.50
2022-12-06T12:51:19.563Z,4.50
2022-12-06T12:53:46.343Z,4.50
2022-12-06T12:56:13.743Z,4.50
2022-12-06T12:58:41.207Z,4.50
2022-12-06T13:01:22.151Z,4.50
2022-12-06T13:03:51.498Z,4.50
2022-12-06T13:06:28.473Z,4.50
2022-12-06T13:08:56.674Z,4.50
2022-12-06T13:11:23.335Z,4.50
2022-12-06T13:13:50.088Z,4.50
2022-12-06T13:16:20.565Z,4.50
2022-12-06T13:18:48.800Z,4.50
2022-12-06T13:21:32.174Z,4.50
2022-12-06T13:24:12.582Z,4.40
2022-12-06T13:26:50.048Z,4.40
2022-12-06T13:29:33.674Z,4.40
2022-12-06T13:32:17.788Z,4.40
2022-12-06T13:34:52.163Z,4.40
2022-12-06T13:38:01.440Z,4.40
2022-12-06T13:40:33.759Z,4.40
2022-12-06T13:43:01.283Z,4.40
2022-12-06T13:45:46.881Z,4.40
2022-12-06T13:48:25.972Z,4.40
2022-12-06T13:51:01.351Z,4.40
2022-12-06T13:53:29.378Z,4.40
2022-12-06T13:56:00.624Z,4.40
2022-12-06T13:58:27.264Z,4.40
2022-12-06T14:00:54.965Z,4.50
2022-12-06T14:03:22.999Z,4.50
2022-12-06T14:06:07.403Z,4.50
2022-12-06T14:08:41.162Z,4.50
2022-12-06T14:11:15.304Z,4.60
2022-12-06T14:13:46.564Z,4.50
2022-12-06T14:16:20.074Z,4.50
2022-12-06T14:18:47.018Z,4.60
2022-12-06T14:21:28.831Z,4.60
2022-12-06T14:23:55.544Z,4.60
2022-12-06T14:26:29.401Z,4.60
2022-12-06T14:28:57.797Z,4.60
2022-12-06T14:31:33.692Z,4.60
2022-12-06T14:34:00.435Z,4.60
2022-12-06T14:36:33.287Z,4.70
2022-12-06T14:39:13.789Z,4.70
2022-12-06T14:41:58.902Z,4.70
2022-12-06T14:44:30.168Z,4.60
2022-12-06T14:46:57.569Z,4.70
2022-12-06T14:49:42.981Z,4.60
2022-12-06T14:52:23.679Z,4.60
2022-12-06T14:54:51.768Z,4.60
2022-12-06T14:57:24.500Z,4.60
2022-12-06T15:00:16.067Z,4.60
2022-12-06T15:02:59.264Z,4.50
2022-12-06T15:05:32.911Z,4.50
2022-12-06T15:07:59.688Z,4.50
2022-12-06T15:10:29.958Z,4.50
2022-12-06T15:13:05.858Z,4.50
2022-12-06T15:15:34.083Z,4.50
2022-12-06T15:18:05.004Z,4.50
2022-12-06T15:20:31.633Z,4.50
2022-12-06T15:22:58.298Z,4.50
2022-12-06T15:25:24.949Z,4.40
2022-12-06T15:27:51.583Z,4.40
2022-12-06T15:30:18.312Z,4.40
2022-12-06T15:32:44.961Z,4.40
2022-12-06T15:35:16.420Z,4.40
2022-12-06T15:37:48.870Z,4.40
2022-12-06T15:40:17.158Z,4.40
2022-12-06T15:42:43.857Z,4.40
2022-12-06T15:45:14.670Z,4.40
2022-12-06T15:47:41.350Z,4.40
2022-12-06T15:50:08.497Z,4.40
2022-12-06T15:52:35.169Z,4.40
2022-12-06T15:55:02.209Z,4.40
2022-12-06T15:57:29.022Z,4.40
2022-12-06T15:59:55.698Z,4.30
2022-12-06T16:02:22.713Z,4.30
2022-12-06T16:04:51.195Z,4.30
2022-12-06T16:07:18.896Z,4.30
2022-12-06T16:09:46.292Z,4.30
2022-12-06T16:12:12.976Z,4.30
2022-12-06T16:14:39.700Z,4.30
2022-12-06T16:17:06.371Z,4.30
2022-12-06T16:19:51.769Z,4.30
2022-12-06T16:22:18.449Z,4.30
2022-12-06T16:24:49.459Z,4.30
2022-12-06T16:27:19.099Z,4.30
2022-12-06T16:29:45.767Z,4.30
2022-12-06T16:32:12.413Z,4.20
2022-12-06T16:34:39.085Z,4.20
2022-12-06T16:37:08.966Z,4.20
2022-12-06T16:39:35.909Z,4.20
2022-12-06T16:42:03.937Z,4.20
2022-12-06T16:44:30.716Z,4.20
2022-12-06T16:46:57.795Z,4.20
2022-12-06T16:52:13.267Z,4.20
2022-12-06T16:54:41.167Z,4.20
2022-12-06T16:57:09.796Z,4.10
2022-12-06T16:59:53.547Z,4.10
2022-12-06T17:02:31.048Z,4.10
2022-12-06T17:05:00.865Z,4.10
2022-12-06T17:07:30.917Z,4.10
2022-12-06T17:09:57.661Z,4.10
2022-12-06T17:12:24.336Z,4.00
2022-12-06T17:14:50.992Z,4.10
2022-12-06T17:17:20.065Z,4.00
2022-12-06T17:19:46.914Z,4.00
2022-12-06T17:22:16.134Z,4.00
2022-12-06T17:24:42.856Z,4.00
2022-12-06T17:27:09.582Z,4.00
2022-12-06T17:29:36.607Z,4.00
2022-12-06T17:32:03.248Z,4.00
2022-12-06T17:34:29.911Z,3.90
2022-12-06T17:36:57.439Z,3.90
2022-12-06T17:39:24.182Z,3.80
2022-12-06T17:42:10.004Z,3.90
2022-12-06T17:44:38.253Z,3.80
2022-12-06T17:47:05.268Z,3.90
2022-12-06T17:49:31.986Z,3.90
2022-12-06T17:51:58.706Z,3.80
2022-12-06T17:54:25.365Z,3.80
2022-12-06T17:56:53.032Z,3.80
2022-12-06T17:59:21.278Z,3.80
2022-12-06T18:02:14.045Z,3.80
2022-12-06T18:04:34.954Z,3.70
2022-12-06T18:07:01.677Z,3.70
2022-12-06T18:09:28.385Z,3.70
2022-12-06T18:11:55.994Z,3.70
2022-12-06T18:14:22.711Z,3.60
2022-12-06T18:16:49.482Z,3.60
2022-12-06T18:19:17.486Z,3.60
2022-12-06T18:21:44.292Z,3.60
2022-12-06T18:24:22.600Z,3.50
2022-12-06T18:26:50.882Z,3.50
2022-12-06T18:29:19.832Z,3.50
2022-12-06T18:31:46.707Z,3.50
2022-12-06T18:34:13.509Z,3.50
2022-12-06T18:36:40.708Z,3.40
2022-12-06T18:39:14.506Z,3.30
2022-12-06T18:41:42.804Z,3.30
2022-12-06T18:44:09.664Z,3.20
2022-12-06T18:46:37.850Z,3.20
2022-12-06T18:49:04.534Z,3.20
2022-12-06T18:51:32.676Z,3.10
2022-12-06T18:54:00.611Z,3.00
2022-12-06T18:56:27.366Z,3.00
2022-12-06T18:58:54.134Z,2.90
2022-12-06T19:01:28.362Z,2.90
2022-12-06T19:03:55.700Z,2.80
2022-12-06T19:06:24.180Z,2.80
2022-12-06T19:08:51.547Z,2.70
2022-12-06T19:11:18.397Z,2.70
2022-12-06T19:13:53.972Z,2.60
2022-12-06T19:16:22.834Z,2.50
2022-12-06T19:18:50.219Z,2.50
2022-12-06T19:21:17.226Z,2.50
2022-12-06T19:23:43.901Z,2.50
2022-12-06T19:26:10.597Z,2.40
2022-12-06T19:28:38.894Z,2.50
2022-12-06T19:31:07.028Z,2.50
2022-12-06T19:33:38.466Z,2.50
2022-12-06T19:36:07.009Z,2.50
2022-12-06T19:38:33.715Z,2.50
2022-12-06T19:41:05.944Z,2.50
2022-12-06T19:43:51.274Z,2.50
2022-12-06T19:46:21.276Z,2.60
2022-12-06T19:48:51.127Z,2.60
2022-12-06T19:51:17.778Z,2.70
2022-12-06T19:53:44.655Z,2.60
2022-12-06T19:56:13.480Z,2.70
2022-12-06T19:58:41.983Z,2.70
2022-12-06T20:01:10.180Z,2.80
2022-12-06T20:03:37.251Z,2.80
2022-12-06T20:06:25.199Z,2.80
2022-12-06T20:08:52.516Z,2.80
2022-12-06T20:11:39.243Z,2.80
2022-12-06T20:14:07.428Z,2.80
2022-12-06T20:16:34.217Z,2.90
2022-12-06T20:19:00.878Z,2.80
2022-12-06T20:21:27.599Z,2.80
2022-12-06T20:23:54.316Z,2.90
2022-12-06T20:26:21.563Z,2.80
2022-12-06T20:28:48.275Z,2.90
2022-12-06T20:31:20.010Z,2.90
2022-12-06T20:33:46.914Z,2.90
2022-12-06T20:36:15.494Z,2.90
2022-12-06T20:38:42.168Z,2.80
2022-12-06T20:41:13.188Z,2.90
2022-12-06T20:43:40.304Z,2.90
2022-12-06T20:46:14.490Z,2.90
2022-12-06T20:48:42.143Z,2.90
2022-12-06T20:51:10.668Z,2.90
2022-12-06T20:53:37.478Z,2.90
2022-12-06T20:56:05.355Z,2.90
2022-12-06T20:58:32.077Z,2.90
2022-12-06T21:00:59.326Z,2.90
2022-12-06T21:03:26.097Z,2.80
2022-12-06T21:06:07.640Z,2.80
2022-12-06T21:08:34.356Z,2.90
2022-12-06T21:11:22.222Z,2.90
2022-12-06T21:13:47.787Z,2.90
2022-12-06T21:16:18.832Z,2.90
2022-12-06T21:18:46.745Z,2.90
2022-12-06T21:21:27.128Z,2.90
2022-12-06T21:23:53.723Z,2.90
2022-12-06T21:26:20.411Z,2.80
2022-12-06T21:28:47.162Z,2.80
2022-12-06T21:31:13.932Z,2.90
2022-12-06T21:33:40.730Z,2.90
2022-12-06T21:36:07.628Z,2.90
2022-12-06T21:38:34.762Z,2.90
2022-12-06T21:41:10.355Z,2.90
2022-12-06T21:43:37.044Z,2.90
2022-12-06T21:46:12.381Z,2.90
2022-12-06T21:48:39.176Z,2.90
2022-12-06T21:51:10.425Z,2.90
2022-12-06T21:53:37.430Z,2.80
2022-12-06T21:56:11.747Z,2.80
2022-12-06T21:58:38.438Z,2.70
2022-12-06T22:01:12.923Z,2.70
2022-12-06T22:03:39.926Z,2.70
2022-12-06T22:06:06.956Z,2.70
2022-12-06T22:08:33.700Z,2.70
2022-12-06T22:11:00.923Z,2.70
2022-12-06T22:13:27.606Z,2.70
2022-12-06T22:15:54.306Z,2.60
2022-12-06T22:18:20.997Z,2.60
2022-12-06T22:20:57.121Z,2.60
2022-12-06T22:23:23.828Z,2.60
2022-12-06T22:25:50.496Z,2.60
2022-12-06T22:28:17.378Z,2.60
2022-12-06T22:30:44.034Z,2.60
2022-12-06T22:33:10.706Z,2.70
2022-12-06T22:35:37.378Z,2.70
2022-12-06T22:38:04.013Z,2.70
2022-12-06T22:40:30.687Z,2.70
2022-12-06T22:42:57.377Z,2.70
2022-12-06T22:45:24.040Z,2.70
2022-12-06T22:47:50.772Z,2.70
2022-12-06T22:50:17.516Z,2.70
2022-12-06T22:52:44.189Z,2.70
2022-12-06T22:55:10.918Z,2.70
2022-12-06T22:57:37.598Z,2.60
2022-12-06T23:00:05.429Z,2.60
2022-12-06T23:02:32.240Z,2.50
2022-12-06T23:04:58.938Z,2.50
2022-12-06T23:07:25.620Z,2.60
2022-12-06T23:09:52.316Z,2.60
2022-12-06T23:12:18.972Z,2.50
2022-12-06T23:14:45.616Z,2.60
2022-12-06T23:17:12.331Z,2.50
2022-12-06T23:19:38.992Z,2.50
2022-12-06T23:22:05.673Z,2.60
2022-12-06T23:24:32.371Z,2.60
2022-12-06T23:26:59.053Z,2.60
2022-12-06T23:29:25.725Z,2.70
2022-12-06T23:31:52.444Z,2.60
2022-12-06T23:34:25.569Z,2.60
2022-12-06T23:36:52.722Z,2.60
2022-12-06T23:39:19.572Z,2.60
2022-12-06T23:41:46.310Z,2.60
2022-12-06T23:44:13.174Z,2.60
2022-12-06T23:46:40.379Z,2.70
2022-12-06T23:49:07.364Z,2.60
2022-12-06T23:51:35.670Z,2.60
2022-12-06T23:54:03.580Z,2.60
2022-12-06T23:56:32.417Z,2.60
2022-12-06T23:58:59.694Z,2.60
